Time;durP1;ratioP1;P1;durP2;ratioP2;P2;SDS_P1;SDS_P2;PMS_P1;PMS_P2;Temp;Humidity;BMP_temperature;BMP_pressure;BME280_temperature;BME280_humidity;BME280_pressure;Samples;Min_cycle;Max_cycle;Signal;HPM_P1;HPM_P2
2022/09/27 00:02:10;;;;;;;2.38;1.55;;;;;;;10.17;100.00;95210.34;5036791;28;20072;-67
2022/09/27 00:04:35;;;;;;;2.25;1.30;;;;;;;10.24;100.00;95213.03;5041795;28;20080;-66
2022/09/27 00:07:01;;;;;;;4.03;1.65;;;;;;;10.21;100.00;95204.84;5027230;28;20044;-67
2022/09/27 00:09:26;;;;;;;3.85;1.45;;;;;;;10.32;100.00;95192.69;5030884;28;20075;-67
2022/09/27 00:11:52;;;;;;;1.83;1.33;;;;;;;10.24;100.00;95187.66;5036559;28;20090;-66
2022/09/27 00:14:17;;;;;;;4.25;1.33;;;;;;;10.08;100.00;95190.88;5054156;28;20033;-65
2022/09/27 00:16:43;;;;;;;3.97;1.40;;;;;;;10.08;100.00;95188.94;5052240;28;20163;-69
2022/09/27 00:19:18;;;;;;;4.63;1.75;;;;;;;10.14;100.00;95200.22;5053198;28;20452;-68
2022/09/27 00:21:45;;;;;;;2.45;1.20;;;;;;;9.99;100.00;95188.56;5035242;28;20112;-66
2022/09/27 00:24:12;;;;;;;2.65;1.60;;;;;;;9.93;100.00;95193.69;5053596;28;20075;-66
2022/09/27 00:26:37;;;;;;;2.10;1.60;;;;;;;9.91;100.00;95187.84;5035832;28;20397;-66
2022/09/27 00:29:03;;;;;;;2.25;1.55;;;;;;;9.81;100.00;95188.66;5030689;28;20021;-67
2022/09/27 00:31:30;;;;;;;3.58;1.95;;;;;;;9.91;100.00;95181.59;5053044;28;20039;-68
2022/09/27 00:34:00;;;;;;;5.10;1.90;;;;;;;9.94;100.00;95176.09;5054034;28;20028;-67
2022/09/27 00:36:27;;;;;;;3.00;1.65;;;;;;;9.93;100.00;95171.81;5058399;28;20397;-67
2022/09/27 00:38:53;;;;;;;2.08;1.25;;;;;;;10.05;100.00;95162.38;5051437;28;20025;-66
2022/09/27 00:41:24;;;;;;;5.75;1.70;;;;;;;9.94;100.00;95169.88;5035767;28;20039;-67
2022/09/27 00:43:55;;;;;;;4.20;1.65;;;;;;;9.85;100.00;95161.31;5057275;28;20490;-70
2022/09/27 00:46:37;;;;;;;6.20;1.65;;;;;;;9.82;100.00;95162.88;5051815;28;20064;-70
2022/09/27 00:49:14;;;;;;;3.53;1.65;;;;;;;9.86;100.00;95160.13;5052628;28;20048;-67
2022/09/27 00:51:44;;;;;;;5.15;1.75;;;;;;;9.91;100.00;95148.78;5053495;28;20098;-69
2022/09/27 00:54:13;;;;;;;2.60;1.70;;;;;;;9.89;100.00;95145.66;5034863;28;20057;-70
2022/09/27 00:56:41;;;;;;;3.75;1.83;;;;;;;9.93;100.00;95157.34;5052924;28;20025;-66
2022/09/27 00:59:16;;;;;;;2.95;1.85;;;;;;;9.89;100.00;95162.84;5053983;28;20025;-69
2022/09/27 01:01:42;;;;;;;5.95;2.00;;;;;;;9.93;100.00;95160.88;5051515;28;20043;-68
2022/09/27 01:04:10;;;;;;;2.88;1.80;;;;;;;9.84;100.00;95155.06;5050537;28;20029;-66
2022/09/27 01:06:37;;;;;;;4.10;2.10;;;;;;;9.86;100.00;95151.94;5036845;28;20101;-68
2022/09/27 01:09:05;;;;;;;3.05;2.13;;;;;;;9.83;100.00;95147.25;5032306;28;20025;-65
2022/09/27 01:12:01;;;;;;;3.30;1.60;;;;;;;9.85;100.00;95148.44;5052725;28;20044;-68
2022/09/27 01:15:15;;;;;;;3.92;2.08;;;;;;;9.86;100.00;95141.75;5052498;28;20396;-67
2022/09/27 01:18:02;;;;;;;2.75;2.00;;;;;;;9.76;100.00;95135.19;5034441;28;20039;-67
2022/09/27 01:20:55;;;;;;;4.47;2.05;;;;;;;9.79;100.00;95135.56;5037749;28;20457;-67
2022/09/27 01:23:50;;;;;;;3.28;1.95;;;;;;;9.73;100.00;95129.75;5054373;28;20064;-67
2022/09/27 01:26:42;;;;;;;3.25;2.00;;;;;;;9.80;100.00;95116.03;5050507;28;20033;-66
2022/09/27 01:29:30;;;;;;;6.93;2.40;;;;;;;9.72;100.00;95119.97;5033774;28;20033;-66
2022/09/27 01:32:01;;;;;;;3.95;2.15;;;;;;;9.75;100.00;95111.75;5051000;28;20493;-68
2022/09/27 01:34:45;;;;;;;3.03;2.03;;;;;;;9.70;100.00;95123.09;5052680;28;20031;-70
2022/09/27 01:37:10;;;;;;;3.20;1.88;;;;;;;9.69;100.00;95129.00;5034287;28;20029;-70
2022/09/27 01:39:49;;;;;;;3.53;2.17;;;;;;;9.67;100.00;95128.59;5052795;28;20032;-72
2022/09/27 01:42:25;;;;;;;3.00;2.10;;;;;;;9.71;100.00;95129.38;5031253;28;20032;-70
2022/09/27 01:44:59;;;;;;;4.43;1.77;;;;;;;9.83;100.00;95123.44;5035252;28;20405;-66
2022/09/27 01:47:36;;;;;;;3.70;2.00;;;;;;;9.87;100.00;95120.69;5053640;28;20114;-66
2022/09/27 01:50:10;;;;;;;2.97;1.70;;;;;;;9.90;100.00;95125.34;5052384;28;20017;-66
2022/09/27 01:52:47;;;;;;;5.47;2.08;;;;;;;9.94;100.00;95123.38;5048970;28;20174;-67
2022/09/27 01:55:16;;;;;;;4.93;2.35;;;;;;;9.82;100.00;95123.84;5049070;28;20088;-68
2022/09/27 01:57:49;;;;;;;4.95;1.92;;;;;;;9.84;100.00;95119.50;5034303;28;20036;-68
2022/09/27 02:00:15;;;;;;;4.68;2.08;;;;;;;9.83;100.00;95131.66;5032145;28;20040;-68
2022/09/27 02:02:50;;;;;;;3.03;1.90;;;;;;;9.83;100.00;95130.84;5050731;28;20478;-68
2022/09/27 02:05:18;;;;;;;5.07;2.22;;;;;;;9.78;100.00;95123.84;5033171;28;20021;-73
2022/09/27 02:07:50;;;;;;;5.10;2.15;;;;;;;9.73;100.00;95127.78;5065660;28;20029;-69
2022/09/27 02:10:22;;;;;;;3.38;1.80;;;;;;;9.70;100.00;95125.06;5059952;28;20025;-67
2022/09/27 02:13:18;;;;;;;3.72;2.15;;;;;;;9.53;100.00;95118.53;5056250;28;21646;-67
2022/09/27 02:15:52;;;;;;;2.60;1.85;;;;;;;9.51;100.00;95116.19;5049421;28;20032;-65
2022/09/27 02:18:27;;;;;;;3.45;2.30;;;;;;;9.42;100.00;95123.25;5050125;28;20112;-67
2022/09/27 02:20:57;;;;;;;5.63;2.33;;;;;;;9.45;100.00;95119.72;5049892;28;20052;-66
2022/09/27 02:23:22;;;;;;;;;;;;;;;9.49;100.00;95115.81;5055583;28;20112;-67
2022/09/27 02:25:52;;;;;;;3.43;1.80;;;;;;;9.54;100.00;95114.59;5067537;28;19908;-71
2022/09/27 02:28:30;;;;;;;3.42;1.95;;;;;;;9.43;100.00;95114.66;5055057;28;20279;-68
2022/09/27 02:30:56;;;;;;;3.75;2.05;;;;;;;9.57;100.00;95106.38;5058908;28;20086;-69
2022/09/27 02:33:33;;;;;;;5.25;2.05;;;;;;;9.59;100.00;95119.66;5052565;28;20131;-67
2022/09/27 02:35:58;;;;;;;5.25;2.38;;;;;;;9.58;100.00;95112.66;5049713;28;20192;-69
2022/09/27 02:38:24;;;;;;;2.67;1.77;;;;;;;9.57;100.00;95117.31;5049256;28;20138;-67
2022/09/27 02:40:49;;;;;;;2.83;1.92;;;;;;;9.50;100.00;95120.09;5035705;28;20018;-67
2022/09/27 02:43:18;;;;;;;3.40;2.17;;;;;;;9.40;100.00;95120.94;5028021;28;20040;-68
2022/09/27 02:46:03;;;;;;;2.88;1.60;;;;;;;9.43;100.00;95122.84;5051447;28;20127;-68
2022/09/27 02:48:29;;;;;;;3.40;1.80;;;;;;;9.32;100.00;95122.13;5051647;28;20108;-70
2022/09/27 02:51:33;;;;;;;4.47;1.40;;;;;;;9.33;100.00;95120.97;5059150;28;20111;-67
2022/09/27 02:54:13;;;;;;;2.15;1.20;;;;;;;9.27;100.00;95130.72;5044679;28;20116;-68
2022/09/27 02:56:41;;;;;;;1.60;1.00;;;;;;;9.24;100.00;95118.66;5070410;28;20027;-67
2022/09/27 02:59:42;;;;;;;2.17;0.90;;;;;;;9.24;100.00;95134.25;5035646;28;20036;-67
2022/09/27 03:02:14;;;;;;;2.70;0.90;;;;;;;9.26;100.00;95137.38;5049276;28;20505;-71
2022/09/27 03:05:04;;;;;;;1.92;0.93;;;;;;;9.22;100.00;95131.13;5050817;28;20639;-67
2022/09/27 03:07:30;;;;;;;3.78;0.70;;;;;;;9.18;100.00;95134.69;5031738;28;20044;-67
2022/09/27 03:09:55;;;;;;;3.13;0.93;;;;;;;9.26;100.00;95126.47;5030462;28;20041;-66
2022/09/27 03:12:24;;;;;;;0.75;0.65;;;;;;;9.27;100.00;95126.03;5049322;28;20029;-65
2022/09/27 03:14:58;;;;;;;1.35;0.73;;;;;;;9.28;100.00;95124.09;5051205;28;20044;-69
2022/09/27 03:17:24;;;;;;;0.98;0.90;;;;;;;9.31;100.00;95131.50;5049684;28;20082;-69
2022/09/27 03:19:50;;;;;;;2.20;0.80;;;;;;;9.28;100.00;95124.09;5033291;28;20021;-65
2022/09/27 03:22:15;;;;;;;3.03;0.80;;;;;;;9.27;100.00;95139.69;5050867;28;20091;-67
2022/09/27 03:24:41;;;;;;;1.80;0.80;;;;;;;9.30;100.00;95138.16;5031830;28;20029;-67
2022/09/27 03:27:07;;;;;;;1.80;0.88;;;;;;;9.24;100.00;95131.50;5049950;28;20027;-72
2022/09/27 03:29:33;;;;;;;1.13;0.70;;;;;;;9.29;100.00;95133.84;5050331;28;20025;-67
2022/09/27 03:31:58;;;;;;;1.63;0.88;;;;;;;9.26;100.00;95132.69;5033693;28;20044;-64
2022/09/27 03:34:24;;;;;;;3.53;1.10;;;;;;;9.28;100.00;95140.50;5050966;28;20141;-71
2022/09/27 03:36:49;;;;;;;3.70;1.17;;;;;;;9.22;100.00;95134.66;5049525;28;20090;-69
2022/09/27 03:39:15;;;;;;;2.17;1.00;;;;;;;9.18;100.00;95131.94;5050084;28;20426;-68
2022/09/27 03:41:40;;;;;;;2.50;0.85;;;;;;;9.27;100.00;95144.38;5050679;28;20025;-64
2022/09/27 03:44:06;;;;;;;1.50;0.80;;;;;;;9.18;100.00;95136.59;5050820;28;20078;-66
2022/09/27 03:46:31;;;;;;;1.50;0.88;;;;;;;9.23;100.00;95138.16;5050451;28;20029;-67
2022/09/27 03:48:56;;;;;;;2.95;1.00;;;;;;;9.21;100.00;95145.97;5049094;28;20090;-65
2022/09/27 03:51:22;;;;;;;2.35;0.90;;;;;;;9.37;100.00;95143.56;5013537;28;20031;-66
2022/09/27 03:53:48;;;;;;;1.60;0.70;;;;;;;9.32;100.00;95149.44;5050635;28;20393;-67
2022/09/27 03:56:13;;;;;;;5.03;0.80;;;;;;;9.29;100.00;95150.22;5050292;28;20048;-69
2022/09/27 03:58:39;;;;;;;4.50;0.82;;;;;;;9.25;100.00;95152.22;5050312;28;20203;-69
2022/09/27 04:01:04;;;;;;;2.97;0.80;;;;;;;9.18;100.00;95161.19;5050838;28;20040;-70
2022/09/27 04:03:30;;;;;;;1.50;0.77;;;;;;;9.35;100.00;95148.66;5050562;28;20029;-71
2022/09/27 04:05:55;;;;;;;2.55;0.70;;;;;;;9.24;100.00;95156.09;5049985;28;20537;-72
2022/09/27 04:08:22;;;;;;;1.00;0.55;;;;;;;9.31;100.00;95156.88;5051228;28;20173;-67
2022/09/27 04:10:48;;;;;;;1.48;0.77;;;;;;;9.28;100.00;95151.41;5053295;28;20032;-70
2022/09/27 04:13:13;;;;;;;3.25;0.80;;;;;;;9.36;100.00;95153.75;5051605;28;20037;-67
2022/09/27 04:15:39;;;;;;;3.28;0.73;;;;;;;9.29;100.00;95152.97;5052108;28;20036;-67
2022/09/27 04:18:05;;;;;;;2.42;0.70;;;;;;;9.27;100.00;95158.81;5053921;28;20075;-66
2022/09/27 04:20:30;;;;;;;1.63;0.82;;;;;;;9.29;100.00;95166.63;5052899;28;20025;-69
2022/09/27 04:22:56;;;;;;;3.47;0.80;;;;;;;9.31;100.00;95175.19;5056581;28;20496;-71
2022/09/27 04:25:21;;;;;;;3.40;0.90;;;;;;;9.24;100.00;95175.22;5053696;28;20033;-67
2022/09/27 04:27:47;;;;;;;2.90;0.90;;;;;;;9.29;100.00;95170.16;5043624;28;20494;-67
2022/09/27 04:30:14;;;;;;;3.92;1.00;;;;;;;9.17;100.00;95179.53;5058502;28;20021;-66
2022/09/27 04:32:41;;;;;;;3.00;0.73;;;;;;;9.12;100.00;95176.44;5061364;28;20089;-67
2022/09/27 04:37:51;;;;;;;2.80;1.00;;;;;;;9.10;100.00;95187.75;5051216;28;20040;-69
2022/09/27 04:40:17;;;;;;;5.55;0.80;;;;;;;9.09;100.00;95180.75;5066704;28;20033;-66
2022/09/27 04:42:42;;;;;;;2.58;0.63;;;;;;;8.95;100.00;95186.25;5053277;28;20071;-69
2022/09/27 04:45:07;;;;;;;2.88;0.90;;;;;;;9.08;100.00;95183.88;5066386;28;20044;-66
2022/09/27 04:47:34;;;;;;;2.83;0.90;;;;;;;8.99;100.00;95189.75;5041668;28;20057;-66
2022/09/27 04:49:59;;;;;;;3.22;0.93;;;;;;;8.93;100.00;95199.47;5051006;28;20040;-68
2022/09/27 04:52:24;;;;;;;6.43;1.30;;;;;;;8.83;100.00;95200.28;5037009;28;20040;-66
2022/09/27 04:54:50;;;;;;;5.82;1.80;;;;;;;8.80;100.00;95199.91;5054032;28;20037;-65
2022/09/27 04:57:16;;;;;;;3.05;1.85;;;;;;;8.85;100.00;95197.94;5048576;28;20028;-69
2022/09/27 04:59:41;;;;;;;3.55;1.27;;;;;;;8.90;100.00;95203.00;5054575;28;20039;-70
2022/09/27 05:02:07;;;;;;;4.65;1.50;;;;;;;8.92;100.00;95203.41;5046759;28;20029;-66
2022/09/27 05:04:32;;;;;;;4.13;1.17;;;;;;;8.84;100.00;95199.91;5054208;28;20037;-68
2022/09/27 05:06:58;;;;;;;7.13;1.77;;;;;;;8.74;100.00;95212.38;5036597;28;20060;-72
2022/09/27 05:09:23;;;;;;;2.25;1.13;;;;;;;8.68;100.00;95208.50;5051682;28;20432;-68
2022/09/27 05:11:48;;;;;;;3.97;0.98;;;;;;;8.74;100.00;95215.09;5036212;28;20409;-69
2022/09/27 05:14:14;;;;;;;6.07;1.45;;;;;;;8.67;100.00;95222.53;5053844;28;20033;-68
2022/09/27 05:16:39;;;;;;;4.75;1.48;;;;;;;8.76;100.00;95217.44;5052415;28;20056;-66
2022/09/27 05:19:04;;;;;;;5.30;1.10;;;;;;;8.70;100.00;95219.78;5027317;28;20029;-66
2022/09/27 05:21:30;;;;;;;5.05;1.48;;;;;;;8.63;100.00;95227.97;5053789;28;20544;-69
2022/09/27 05:23:56;;;;;;;7.72;2.17;;;;;;;8.67;100.00;95230.72;5055988;28;20059;-66
2022/09/27 05:26:22;;;;;;;5.85;1.52;;;;;;;8.73;100.00;95232.69;5025848;28;20029;-69
2022/09/27 05:28:47;;;;;;;9.07;1.15;;;;;;;8.82;100.00;95231.47;5044094;28;20047;-67
2022/09/27 05:31:13;;;;;;;3.63;1.20;;;;;;;8.85;100.00;95244.38;5044915;28;20079;-66
2022/09/27 05:33:39;;;;;;;3.95;1.00;;;;;;;8.77;100.00;95249.06;5055445;28;20037;-68
2022/09/27 05:36:06;;;;;;;2.45;1.23;;;;;;;8.82;100.00;95247.88;5056814;28;20115;-70
2022/09/27 05:38:31;;;;;;;4.03;1.25;;;;;;;8.88;100.00;95252.56;5044741;28;20055;-68
2022/09/27 05:40:57;;;;;;;6.72;1.60;;;;;;;8.91;100.00;95246.31;5043745;28;20033;-69
2022/09/27 05:43:23;;;;;;;5.25;1.60;;;;;;;8.94;100.00;95256.44;5056636;28;20098;-67
2022/09/27 05:45:51;;;;;;;6.90;1.50;;;;;;;8.88;100.00;95254.50;5058131;28;20486;-67
2022/09/27 05:48:17;;;;;;;5.53;1.08;;;;;;;9.03;100.00;95255.28;5040219;28;20041;-68
2022/09/27 05:50:43;;;;;;;5.18;1.98;;;;;;;9.02;100.00;95259.16;5031327;28;20032;-68
2022/09/27 05:53:09;;;;;;;7.30;1.13;;;;;;;9.06;100.00;95268.16;5072891;28;20055;-68
2022/09/27 05:55:35;;;;;;;4.22;1.23;;;;;;;9.02;100.00;95262.69;5055312;28;20037;-68
2022/09/27 05:58:05;;;;;;;5.40;1.15;;;;;;;9.04;100.00;95254.88;5051892;28;20062;-68
2022/09/27 06:00:31;;;;;;;3.92;1.20;;;;;;;8.97;100.00;95263.84;5045464;28;20104;-67
2022/09/27 06:03:02;;;;;;;5.32;1.70;;;;;;;9.10;100.00;95272.44;5052882;28;20192;-67
2022/09/27 06:05:30;;;;;;;7.43;1.70;;;;;;;9.12;100.00;95270.09;5052490;28;20068;-67
2022/09/27 06:08:11;;;;;;;7.63;1.90;;;;;;;9.21;100.00;95277.09;5036205;28;20034;-67
2022/09/27 06:10:37;;;;;;;6.40;2.30;;;;;;;9.26;100.00;95272.03;5054255;28;20044;-67
2022/09/27 06:13:05;;;;;;;7.10;2.13;;;;;;;9.24;100.00;95260.72;5053120;28;20044;-67
2022/09/27 06:15:33;;;;;;;9.38;1.60;;;;;;;9.16;100.00;95276.34;5045734;28;20039;-68
2022/09/27 06:18:11;;;;;;;4.93;1.20;;;;;;;9.09;100.00;95264.63;5057515;28;20387;-71
2022/09/27 06:20:38;;;;;;;8.75;1.35;;;;;;;9.10;100.00;95272.44;5071436;28;20013;-70
2022/09/27 06:23:09;;;;;;;5.47;1.52;;;;;;;9.22;100.00;95263.06;5070613;28;20019;-69
2022/09/27 06:25:35;;;;;;;2.83;0.88;;;;;;;9.15;100.00;95277.50;5053579;28;20044;-70
2022/09/27 06:28:02;;;;;;;3.42;1.13;;;;;;;9.27;100.00;95283.72;5039796;28;20029;-69
2022/09/27 06:30:28;;;;;;;4.57;1.20;;;;;;;9.28;100.00;95288.78;5017507;28;20045;-68
2022/09/27 06:33:01;;;;;;;3.45;1.10;;;;;;;9.33;100.00;95301.28;5044886;28;20037;-68
2022/09/27 06:35:28;;;;;;;4.05;1.20;;;;;;;9.26;100.00;95284.91;5052248;28;20033;-67
2022/09/27 06:37:54;;;;;;;5.90;1.30;;;;;;;9.21;100.00;95294.28;5059315;28;20043;-70
2022/09/27 06:40:21;;;;;;;4.07;1.15;;;;;;;9.14;100.00;95305.19;5054340;28;20085;-70
2022/09/27 06:42:46;;;;;;;3.00;1.00;;;;;;;8.97;100.00;95301.31;5054540;28;20026;-71
2022/09/27 06:45:12;;;;;;;2.03;0.93;;;;;;;8.91;100.00;95313.78;5018743;28;20086;-70
2022/09/27 06:47:37;;;;;;;3.25;1.00;;;;;;;8.94;100.00;95302.09;5053318;28;20035;-71
2022/09/27 06:50:04;;;;;;;2.85;1.17;;;;;;;9.02;100.00;95302.84;5054087;28;20047;-69
2022/09/27 06:52:33;;;;;;;4.10;1.45;;;;;;;9.14;100.00;95308.69;5043347;28;20116;-70
2022/09/27 06:55:00;;;;;;;4.85;1.27;;;;;;;9.15;100.00;95321.19;5039735;28;20072;-66
2022/09/27 07:00:23;;;;;;;3.35;1.10;;;;;;;8.99;100.00;95321.59;5056149;28;20067;-69
2022/09/27 07:02:57;;;;;;;2.78;1.13;;;;;;;8.85;100.00;95331.72;5037164;28;20032;-70
2022/09/27 07:05:22;;;;;;;4.03;1.15;;;;;;;8.98;100.00;95320.03;5051260;28;20044;-70
2022/09/27 07:07:49;;;;;;;5.50;1.35;;;;;;;9.05;100.00;95329.41;5053883;28;20033;-70
2022/09/27 07:10:16;;;;;;;3.42;1.52;;;;;;;9.08;100.00;95337.59;5055545;28;20032;-70
2022/09/27 07:12:46;;;;;;;5.72;1.63;;;;;;;9.03;100.00;95337.97;5059154;28;20032;-69
2022/09/27 07:15:11;;;;;;;5.10;1.23;;;;;;;9.09;100.00;95339.16;5053421;28;20033;-70
2022/09/27 07:17:37;;;;;;;2.88;1.42;;;;;;;9.29;100.00;95339.56;5044160;28;20032;-69
2022/09/27 07:20:03;;;;;;;2.97;0.82;;;;;;;9.20;100.00;95344.63;5034969;28;20017;-70
2022/09/27 07:22:29;;;;;;;4.97;1.13;;;;;;;9.16;100.00;95347.34;5035148;28;20040;-70
2022/09/27 07:24:55;;;;;;;2.50;0.90;;;;;;;9.17;100.00;95346.19;5042330;28;20033;-70
2022/09/27 07:27:21;;;;;;;4.82;1.65;;;;;;;9.18;100.00;95358.66;5049089;28;20108;-70
2022/09/27 07:29:46;;;;;;;7.80;1.35;;;;;;;9.16;100.00;95355.56;5051414;28;20500;-68
2022/09/27 07:32:12;;;;;;;4.88;1.10;;;;;;;9.08;100.00;95364.91;5044166;28;20043;-67
2022/09/27 07:34:37;;;;;;;3.08;1.40;;;;;;;8.99;100.00;95373.47;5038301;28;20055;-68
2022/09/27 07:37:04;;;;;;;6.15;1.48;;;;;;;9.07;100.00;95366.06;5039564;28;20070;-68
2022/09/27 07:39:32;;;;;;;2.45;1.00;;;;;;;9.04;100.00;95372.31;5040374;28;20048;-66
2022/09/27 07:41:58;;;;;;;6.07;1.20;;;;;;;9.08;100.00;95381.28;5010390;28;20044;-66
2022/09/27 07:44:24;;;;;;;4.03;1.23;;;;;;;9.04;100.00;95390.63;5014004;28;20122;-67
2022/09/27 07:46:49;;;;;;;2.97;1.17;;;;;;;8.84;100.00;95382.84;5026556;28;20052;-66
2022/09/27 07:49:15;;;;;;;3.17;0.98;;;;;;;8.82;100.00;95393.34;5037057;28;20080;-70
2022/09/27 07:51:40;;;;;;;5.03;0.80;;;;;;;8.87;100.00;95389.47;5023968;28;20083;-69
2022/09/27 07:54:05;;;;;;;3.08;1.10;;;;;;;8.83;100.00;95400.38;5034127;28;20098;-68
2022/09/27 07:56:31;;;;;;;2.83;0.70;;;;;;;8.76;100.00;95406.59;5033386;28;20832;-67
2022/09/27 07:58:58;;;;;;;3.20;0.80;;;;;;;8.73;100.00;95406.56;5041743;28;20140;-67
2022/09/27 08:01:23;;;;;;;1.25;0.80;;;;;;;8.49;100.00;95408.06;5036700;28;20530;-68
2022/09/27 08:03:48;;;;;;;2.38;0.70;;;;;;;8.49;100.00;95418.97;5037031;28;20045;-68
2022/09/27 08:06:14;;;;;;;1.27;0.80;;;;;;;8.42;100.00;95428.69;5032479;28;20048;-67
2022/09/27 08:08:40;;;;;;;1.90;0.90;;;;;;;8.34;100.00;95432.53;5041988;28;20460;-70
2022/09/27 08:11:15;;;;;;;1.33;0.70;;;;;;;8.39;100.00;95429.44;5038020;28;20075;-68
2022/09/27 08:13:42;;;;;;;1.17;0.63;;;;;;;8.36;100.00;95429.44;5040526;28;20049;-70
2022/09/27 08:16:07;;;;;;;2.60;0.65;;;;;;;8.21;100.00;95418.44;5022628;28;20124;-70
2022/09/27 08:18:33;;;;;;;2.53;0.70;;;;;;;8.19;100.00;95422.72;5021083;28;20131;-68
2022/09/27 08:20:59;;;;;;;1.73;0.70;;;;;;;8.21;100.00;95417.66;5035112;28;20033;-71
2022/09/27 08:23:25;;;;;;;1.02;0.60;;;;;;;8.31;100.00;95432.53;5014780;28;20115;-69
2022/09/27 08:25:52;;;;;;;2.70;0.70;;;;;;;8.49;100.00;95430.69;5042818;28;20045;-68
2022/09/27 08:28:18;;;;;;;1.30;0.65;;;;;;;8.51;100.00;95428.34;5041030;28;20045;-68
2022/09/27 08:30:43;;;;;;;1.17;0.70;;;;;;;8.79;100.00;95426.88;5045470;28;20152;-68
2022/09/27 08:33:09;;;;;;;3.83;0.90;;;;;;;8.99;100.00;95440.97;5040685;28;20052;-67
2022/09/27 08:35:34;;;;;;;4.53;1.25;;;;;;;9.26;100.00;95443.38;5044499;28;20488;-68
2022/09/27 08:38:01;;;;;;;2.65;0.80;;;;;;;9.67;100.00;95451.19;5043888;28;20136;-68
2022/09/27 08:40:49;;;;;;;1.90;1.00;;;;;;;9.47;100.00;95457.06;5038296;28;20064;-67
2022/09/27 08:43:33;;;;;;;4.00;1.50;;;;;;;9.91;100.00;95458.59;5027843;28;20113;-70
2022/09/27 08:46:18;;;;;;;1.75;0.50;;;;;;;10.24;100.00;95469.47;5038595;28;20037;-68
2022/09/27 08:48:48;;;;;;;3.28;0.85;;;;;;;10.51;100.00;95470.63;5051930;28;20040;-68
2022/09/27 08:51:15;;;;;;;1.80;0.63;;;;;;;10.47;100.00;95469.84;5057396;28;20071;-68
2022/09/27 08:53:50;;;;;;;1.73;0.52;;;;;;;10.41;100.00;95474.16;5050196;28;20123;-68
2022/09/27 08:56:20;;;;;;;2.30;0.68;;;;;;;10.06;100.00;95473.03;5040620;28;20520;-69
2022/09/27 08:59:20;;;;;;;4.90;1.30;;;;;;;10.13;100.00;95477.72;5044542;28;20127;-68
2022/09/27 09:01:47;;;;;;;1.95;0.60;;;;;;;9.69;100.00;95471.50;5043600;28;20102;-69
2022/09/27 09:04:25;;;;;;;2.60;1.02;;;;;;;10.04;100.00;95478.09;5030794;28;20069;-68
2022/09/27 09:07:38;;;;;;;3.38;0.88;;;;;;;10.00;100.00;95482.03;5031871;28;20071;-70
2022/09/27 09:10:10;;;;;;;1.42;0.85;;;;;;;9.86;100.00;95472.66;4999413;28;20041;-67
2022/09/27 09:12:56;;;;;;;2.05;0.80;;;;;;;9.94;100.00;95481.66;5024300;28;20052;-68
2022/09/27 09:15:55;;;;;;;2.10;0.90;;;;;;;9.86;100.00;95483.59;5029093;28;20046;-68
2022/09/27 09:18:33;;;;;;;3.33;1.00;;;;;;;9.69;100.00;95487.91;5041016;28;20575;-67
2022/09/27 09:21:19;;;;;;;3.22;0.90;;;;;;;9.38;100.00;95484.75;5044534;28;20048;-69
2022/09/27 09:24:14;;;;;;;1.35;0.80;;;;;;;9.44;100.00;95485.16;5042532;28;20375;-69
2022/09/27 09:26:54;;;;;;;3.10;0.90;;;;;;;9.84;100.00;95479.69;5042371;28;20052;-69
2022/09/27 09:29:33;;;;;;;2.55;0.95;;;;;;;10.13;100.00;95485.91;5059760;28;20103;-68
2022/09/27 09:32:21;;;;;;;3.97;1.47;;;;;;;10.55;100.00;95487.03;5045168;28;20052;-70
2022/09/27 09:35:11;;;;;;;3.22;1.00;;;;;;;10.73;100.00;95495.16;5039504;28;20307;-68
2022/09/27 09:37:52;;;;;;;2.88;0.90;;;;;;;10.95;100.00;95481.38;5042483;28;20128;-69
2022/09/27 09:40:18;;;;;;;4.00;1.00;;;;;;;10.66;100.00;95481.50;5023077;28;20448;-70
2022/09/27 09:43:12;;;;;;;6.68;1.48;;;;;;;10.45;100.00;95485.88;5034882;28;20124;-68
2022/09/27 09:45:43;;;;;;;3.50;1.40;;;;;;;11.09;100.00;95481.31;5045247;28;20048;-70
2022/09/27 09:48:23;;;;;;;5.45;1.30;;;;;;;11.48;100.00;95483.06;5021985;28;20040;-69
2022/09/27 09:50:53;;;;;;;4.03;1.05;;;;;;;12.37;100.00;95480.75;5019741;28;20521;-69
2022/09/27 09:53:21;;;;;;;5.18;1.10;;;;;;;12.32;100.00;95475.75;5024278;28;20132;-69
2022/09/27 09:56:02;;;;;;;3.70;1.05;;;;;;;12.99;100.00;95479.66;5049951;28;20044;-68
2022/09/27 09:58:43;;;;;;;7.03;1.27;;;;;;;13.07;100.00;95482.31;5030594;28;20045;-69
2022/09/27 10:01:23;;;;;;;3.90;0.98;;;;;;;13.09;100.00;95469.75;5046433;28;20163;-70
2022/09/27 10:03:49;;;;;;;5.05;1.15;;;;;;;13.37;100.00;95478.81;5045141;28;20068;-70
2022/09/27 10:06:16;;;;;;;3.47;1.05;;;;;;;12.99;100.00;95474.16;5038415;28;20033;-70
2022/09/27 10:08:42;;;;;;;6.47;1.45;;;;;;;12.35;100.00;95475.69;5043092;28;20539;-68
2022/09/27 10:11:18;;;;;;;2.72;0.93;;;;;;;12.29;100.00;95477.31;5032233;28;20041;-69
2022/09/27 10:13:44;;;;;;;6.13;1.40;;;;;;;11.51;100.00;95478.75;5026498;28;20084;-68
2022/09/27 10:16:13;;;;;;;7.18;1.40;;;;;;;11.29;100.00;95474.16;5002913;28;20497;-70
2022/09/27 10:18:40;;;;;;;7.18;1.55;;;;;;;11.30;100.00;95474.94;5028746;28;20459;-68
2022/09/27 10:21:29;;;;;;;5.80;1.30;;;;;;;11.34;100.00;95477.66;5033893;28;20421;-68
2022/09/27 10:24:03;;;;;;;3.95;1.40;;;;;;;11.45;100.00;95467.41;5038475;28;20053;-68
2022/09/27 10:26:29;;;;;;;4.22;1.13;;;;;;;11.53;100.00;95465.41;5039418;28;20064;-69
2022/09/27 10:28:55;;;;;;;15.38;6.63;;;;;;;11.97;100.00;95461.16;5038984;28;20136;-68
2022/09/27 10:31:21;;;;;;;7.22;1.30;;;;;;;12.10;100.00;95459.47;5034221;28;20063;-68
2022/09/27 10:33:56;;;;;;;7.32;1.83;;;;;;;12.32;100.00;95448.28;5046965;28;20136;-70
2022/09/27 10:36:30;;;;;;;4.13;1.48;;;;;;;13.13;100.00;95453.97;5048082;28;20110;-68
2022/09/27 10:38:59;;;;;;;6.03;1.13;;;;;;;13.18;100.00;95449.97;5043242;28;20044;-69
2022/09/27 10:41:40;;;;;;;5.10;1.30;;;;;;;13.16;100.00;95449.59;5039921;28;20366;-69
2022/09/27 10:44:14;;;;;;;3.88;1.00;;;;;;;13.59;100.00;95432.50;5036488;28;20048;-68
2022/09/27 10:46:41;;;;;;;4.70;1.45;;;;;;;13.41;100.00;95435.53;5034267;28;20039;-68
2022/09/27 10:49:30;;;;;;;4.90;1.00;;;;;;;13.51;100.00;95429.09;5037766;28;20105;-68
2022/09/27 10:52:17;;;;;;;4.97;1.17;;;;;;;13.27;100.00;95425.50;5024492;28;20788;-68
2022/09/27 10:55:12;;;;;;;3.40;1.00;;;;;;;12.82;100.00;95433.97;5040290;28;20175;-67
2022/09/27 10:57:38;;;;;;;4.15;0.90;;;;;;;13.11;100.00;95434.38;5022378;28;20938;-68
2022/09/27 11:00:18;;;;;;;4.18;1.33;;;;;;;13.31;100.00;95436.47;5039151;28;20037;-71
2022/09/27 11:02:58;;;;;;;6.53;2.05;;;;;;;12.76;100.00;95435.59;5031625;28;20045;-66
2022/09/27 11:05:26;;;;;;;8.43;1.40;;;;;;;12.64;100.00;95439.69;5038591;28;20294;-66
2022/09/27 11:07:55;;;;;;;11.88;1.70;;;;;;;12.69;100.00;95419.97;5053546;28;20190;-69
2022/09/27 11:10:33;;;;;;;3.92;0.93;;;;;;;12.81;100.00;95422.19;5056972;28;20049;-67
2022/09/27 11:13:13;;;;;;;4.88;1.40;;;;;;;13.41;100.00;95421.78;5054164;28;20064;-67
2022/09/27 11:16:09;;;;;;;5.15;1.48;;;;;;;13.67;100.00;95428.44;5041479;28;20045;-67
2022/09/27 11:18:56;;;;;;;4.13;1.20;;;;;;;12.82;100.00;95448.47;5043188;28;20045;-66
2022/09/27 11:21:40;;;;;;;4.75;1.20;;;;;;;12.14;100.00;95445.72;5036862;28;20509;-68
2022/09/27 11:24:18;;;;;;;3.65;1.10;;;;;;;11.44;100.00;95455.66;5029756;28;20045;-70
2022/09/27 11:27:22;;;;;;;6.90;1.55;;;;;;;10.52;100.00;95458.47;5042773;28;20117;-66
2022/09/27 11:30:06;;;;;;;16.85;9.27;;;;;;;10.48;100.00;95455.00;5042111;28;20036;-68
2022/09/27 11:32:52;;;;;;;6.60;1.92;;;;;;;10.02;100.00;95450.38;5032406;28;20045;-66
2022/09/27 11:35:57;;;;;;;4.82;1.15;;;;;;;10.04;100.00;95450.75;5031346;28;20041;-70
2022/09/27 11:38:54;;;;;;;4.10;1.10;;;;;;;10.00;100.00;95449.22;5036082;28;20670;-67
2022/09/27 11:41:24;;;;;;;2.70;0.75;;;;;;;10.17;100.00;95436.66;5033325;28;20124;-68
2022/09/27 11:44:18;;;;;;;1.88;0.82;;;;;;;10.29;100.00;95431.53;5027663;28;20498;-68
2022/09/27 11:46:58;;;;;;;12.45;6.40;;;;;;;9.96;100.00;95430.06;5047313;28;20045;-67
2022/09/27 11:49:36;;;;;;;;;;;;;;;9.76;100.00;95444.16;5041799;28;20045;-70
2022/09/27 11:52:14;;;;;;;4.57;1.40;;;;;;;9.62;100.00;95444.16;4999873;28;19948;-73
2022/09/27 11:54:57;;;;;;;2.03;0.77;;;;;;;9.50;100.00;95447.28;5044508;28;20056;-71
2022/09/27 11:57:30;;;;;;;2.10;0.70;;;;;;;9.49;100.00;95432.03;5016777;28;20135;-67
2022/09/27 12:00:14;;;;;;;2.05;0.60;;;;;;;9.40;100.00;95418.78;5038012;28;20049;-69